Time;durP1;ratioP1;P1;durP2;ratioP2;P2;SDS_P1;SDS_P2;PMS_P1;PMS_P2;Temp;Humidity;BMP_temperature;BMP_pressure;BME280_temperature;BME280_humidity;BME280_pressure;Samples;Min_cycle;Max_cycle;Signal;HPM_P1;HPM_P2
2021/06/01 00:00:05;;;;;;;;;6.33;4.67;;;;;20.00;38.74;101180.94;5082153;28;45957;-91
2021/06/01 00:02:31;;;;;;;;;4.33;4.33;;;;;19.96;38.30;101176.56;5083224;28;45509;-92
2021/06/01 00:04:56;;;;;;;;;5.00;5.00;;;;;20.01;38.63;101180.03;5082683;28;45362;-93
2021/06/01 00:07:22;;;;;;;;;4.00;4.00;;;;;20.09;38.75;101200.41;5078661;28;47984;-92
2021/06/01 00:09:47;;;;;;;;;3.67;3.67;;;;;19.96;38.62;101167.66;5079004;28;45862;-93
2021/06/01 00:12:13;;;;;;;;;4.00;4.00;;;;;19.93;38.36;101173.91;5080408;27;45492;-91
2021/06/01 00:14:38;;;;;;;;;4.00;4.00;;;;;19.88;38.25;101167.78;5079942;28;45393;-92
2021/06/01 00:17:04;;;;;;;;;7.00;5.00;;;;;19.89;38.66;101173.09;5079915;28;46923;-93
2021/06/01 00:19:29;;;;;;;;;6.67;3.00;;;;;19.84;38.28;101169.59;5079024;28;45358;-94
2021/06/01 00:21:55;;;;;;;;;6.00;6.00;;;;;19.81;38.55;101167.00;5086593;28;45299;-93
2021/06/01 00:24:20;;;;;;;;;5.00;5.00;;;;;19.89;38.46;101185.53;5093315;28;45405;-92
2021/06/01 00:26:46;;;;;;;;;5.00;5.00;;;;;19.93;38.15;101189.03;5099711;28;46985;-92
2021/06/01 00:29:11;;;;;;;;;3.00;3.00;;;;;19.77;38.03;101167.94;5099020;28;44755;-92
2021/06/01 00:31:41;;;;;;;;;5.00;5.00;;;;;19.73;38.71;101163.53;5095672;28;44802;-92
2021/06/01 00:34:07;;;;;;;;;6.33;5.00;;;;;19.88;39.13;101187.31;5086912;28;45235;-92
2021/06/01 00:36:33;;;;;;;;;6.33;5.00;;;;;19.74;38.74;101162.63;5087243;28;47112;-93
2021/06/01 00:38:58;;;;;;;;;5.00;5.00;;;;;19.85;38.64;101189.16;5086860;28;45516;-93
2021/06/01 00:41:24;;;;;;;;;6.33;5.33;;;;;19.78;38.86;101167.91;5087400;27;45144;-92
2021/06/01 00:43:49;;;;;;;;;5.00;5.00;;;;;19.78;38.70;101173.25;5087042;28;45579;-92
2021/06/01 00:46:15;;;;;;;;;4.00;4.00;;;;;19.77;38.38;101173.28;5087985;28;46500;-91
2021/06/01 00:48:40;;;;;;;;;5.67;4.00;;;;;19.80;38.81;101183.88;5089821;27;45780;-93
2021/06/01 00:51:06;;;;;;;;;5.33;5.00;;;;;19.67;38.40;101160.03;5084447;27;45301;-94
2021/06/01 00:53:33;;;;;;;;;5.67;5.00;;;;;19.77;38.57;101181.28;5085554;28;45252;-92
2021/06/01 00:55:59;;;;;;;;;6.00;5.00;;;;;19.69;38.46;101164.50;5083853;28;47222;-93
2021/06/01 00:58:25;;;;;;;;;4.67;4.67;;;;;19.62;38.93;101161.91;5084663;28;45353;-93
2021/06/01 01:03:17;;;;;;;;;6.00;4.33;;;;;19.55;38.56;101157.56;5083307;27;45172;-90
2021/06/01 01:05:47;;;;;;;;;5.67;4.67;;;;;19.50;38.84;101154.09;5082311;27;46633;-92
2021/06/01 01:08:31;;;;;;;;;4.67;4.67;;;;;19.63;38.26;101179.66;5081609;28;45443;-90
2021/06/01 01:11:06;;;;;;;;;5.00;5.00;;;;;19.44;38.43;101144.34;5082692;28;45364;-89
2021/06/01 01:13:49;;;;;;;;;4.00;3.33;;;;;19.59;38.46;101177.06;5085115;28;45508;-92
2021/06/01 01:16:17;;;;;;;;;5.33;4.67;;;;;19.44;38.56;101161.25;5087429;28;48010;-93
2021/06/01 01:18:50;;;;;;;;;5.67;5.00;;;;;19.53;38.62;101170.91;5085784;27;45491;-92
2021/06/01 01:21:23;;;;;;;;;5.67;5.67;;;;;19.42;38.48;101152.38;5083265;28;45501;-93
2021/06/01 01:24:28;;;;;;;;;6.00;4.33;;;;;19.35;38.39;101140.06;5067592;28;45250;-93
2021/06/01 01:27:26;;;;;;;;;5.67;5.67;;;;;19.35;38.12;101144.50;5061001;28;48260;-93
2021/06/01 01:29:53;;;;;;;;;9.33;5.33;;;;;19.31;38.77;101146.31;5044263;28;46284;-91
2021/06/01 01:32:28;;;;;;;;;7.00;4.33;;;;;19.43;38.63;101158.59;5049791;28;45374;-91
2021/06/01 01:34:58;;;;;;;;;4.67;4.67;;;;;19.28;38.82;101138.34;5048162;28;45730;-92
2021/06/01 01:37:25;;;;;;;;;6.33;5.00;;;;;19.33;38.32;101152.53;5027249;28;47896;-93
2021/06/01 01:39:56;;;;;;;;;6.00;5.33;;;;;19.25;38.27;101143.75;5023104;28;45487;-93
2021/06/01 01:42:23;;;;;;;;;5.00;4.33;;;;;19.33;38.27;101153.38;5007272;28;45481;-93
2021/06/01 01:44:51;;;;;;;;;5.33;5.33;;;;;19.32;38.71;101151.63;5022728;28;45418;-92
2021/06/01 01:50:05;;;;;;;;;4.33;4.33;;;;;19.11;38.50;101115.44;5041092;28;45497;-92
2021/06/01 01:52:33;;;;;;;;;6.00;6.00;;;;;19.26;38.56;101146.38;5023388;28;45434;-92
2021/06/01 01:54:59;;;;;;;;;6.00;4.67;;;;;19.20;38.96;101133.13;5026056;28;45358;-94
2021/06/01 01:57:30;;;;;;;;;4.67;4.67;;;;;19.22;38.92;101141.97;5022753;28;47049;-93
2021/06/01 01:59:57;;;;;;;;;5.67;5.00;;;;;19.15;38.91;101129.63;5024322;28;45986;-93
2021/06/01 02:02:22;;;;;;;;;4.00;4.00;;;;;19.06;38.37;101115.47;5024842;28;45377;-94
2021/06/01 02:04:49;;;;;;;;;7.00;5.67;;;;;19.08;38.46;101124.34;5026925;28;45316;-92
2021/06/01 02:07:14;;;;;;;;;4.67;4.00;;;;;19.15;38.88;101135.84;5067607;28;47601;-91
2021/06/01 02:09:40;;;;;;;;;5.00;5.00;;;;;18.96;38.73;101106.72;5082080;28;45417;-94
2021/06/01 02:12:06;;;;;;;;;5.33;4.67;;;;;19.05;39.00;101124.38;5086234;28;45370;-95
2021/06/01 02:14:31;;;;;;;;;7.33;7.00;;;;;19.04;38.62;101125.28;5086594;28;44924;-93
2021/06/01 02:16:58;;;;;;;;;6.00;6.00;;;;;18.94;39.03;101113.84;5089976;28;47246;-92
2021/06/01 02:19:24;;;;;;;;;5.00;5.00;;;;;18.92;39.06;101109.44;5083643;28;45363;-95
2021/06/01 02:22:15;;;;;;;;;5.00;5.00;;;;;18.98;39.09;101125.34;5068829;28;45336;-93
2021/06/01 02:25:08;;;;;;;;;8.67;6.00;;;;;19.01;39.31;101135.97;5101055;28;45429;-91
2021/06/01 02:27:57;;;;;;;;;4.33;4.00;;;;;18.96;39.71;101129.81;5099840;28;47628;-91
2021/06/01 02:30:37;;;;;;;;;7.00;4.33;;;;;18.98;39.79;101131.56;5100181;27;45401;-90
2021/06/01 02:33:05;;;;;;;;;6.00;5.67;;;;;18.88;39.18;101123.69;5100509;28;44722;-93
2021/06/01 02:35:39;;;;;;;;;7.33;5.33;;;;;18.88;39.33;101124.56;5118709;27;44815;-91
2021/06/01 02:38:07;;;;;;;;;6.33;6.00;;;;;18.72;39.42;101097.22;5082834;28;48109;-92
2021/06/01 02:40:54;;;;;;;;;6.33;6.00;;;;;18.81;39.73;101110.44;5093048;28;44811;-93
2021/06/01 02:43:20;;;;;;;;;5.00;4.00;;;;;18.87;39.60;101133.44;5089834;28;45327;-91
2021/06/01 02:45:47;;;;;;;;;6.00;6.00;;;;;18.73;39.89;101109.63;5084417;27;45183;-93
2021/06/01 02:48:17;;;;;;;;;5.00;5.00;;;;;18.82;39.69;101121.97;5099862;27;45298;-91
2021/06/01 02:50:47;;;;;;;;;5.00;4.00;;;;;18.73;39.53;101110.53;5119495;27;44796;-93
2021/06/01 02:53:13;;;;;;;;;5.00;5.00;;;;;18.62;40.04;101093.78;5090009;27;45156;-93
2021/06/01 02:55:41;;;;;;;;;10.33;7.00;;;;;18.67;39.58;101102.59;5085294;28;45673;-91
2021/06/01 02:58:11;;;;;;;;;10.67;8.00;;;;;18.68;39.77;101106.13;5085083;28;47217;-94
2021/06/01 03:00:38;;;;;;;;;11.67;9.00;;;;;18.62;39.38;101097.31;5087739;28;45252;-93
2021/06/01 03:03:06;;;;;;;;;13.33;12.00;;;;;18.56;39.64;101086.75;5087102;28;45402;-92
2021/06/01 03:05:32;;;;;;;;;13.67;11.67;;;;;18.61;39.13;101092.03;5087445;28;45506;-89
2021/06/01 03:08:13;;;;;;;;;15.33;13.33;;;;;18.54;39.30;101084.97;5092273;27;45333;-92
2021/06/01 03:10:39;;;;;;;;;13.33;11.00;;;;;18.57;39.83;101088.47;5084648;28;45381;-93
2021/06/01 03:13:04;;;;;;;;;14.00;11.33;;;;;18.52;39.67;101085.00;5084482;28;44849;-93
2021/06/01 03:15:39;;;;;;;;;12.67;10.33;;;;;18.60;39.31;101104.44;5081829;28;45456;-91
2021/06/01 03:18:04;;;;;;;;;14.00;11.00;;;;;18.59;39.66;101100.00;5079952;28;46936;-92
2021/06/01 03:20:30;;;;;;;;;11.25;9.25;;;;;18.55;39.30;101094.75;5085483;28;45316;-93
2021/06/01 03:22:56;;;;;;;;;10.67;10.67;;;;;18.54;39.50;101104.50;5082616;28;45283;-93
2021/06/01 03:25:24;;;;;;;;;9.67;7.33;;;;;18.38;39.83;101075.38;5089084;28;45239;-91
2021/06/01 03:27:50;;;;;;;;;11.00;9.33;;;;;18.45;39.87;101083.28;5088261;28;47088;-93
2021/06/01 03:30:15;;;;;;;;;9.67;9.00;;;;;18.41;39.49;101085.09;5081141;28;45297;-93
2021/06/01 03:32:41;;;;;;;;;8.67;7.67;;;;;18.33;40.19;101074.53;5080404;28;45362;-94
2021/06/01 03:35:08;;;;;;;;;8.33;8.33;;;;;18.50;39.93;101102.78;5079501;28;45577;-94
2021/06/01 03:37:43;;;;;;;;;7.33;7.33;;;;;18.40;40.21;101078.03;5079229;28;48181;-92
2021/06/01 03:40:09;;;;;;;;;6.67;6.67;;;;;18.26;40.30;101055.09;5078329;28;45816;-92
2021/06/01 03:42:35;;;;;;;;;9.00;7.67;;;;;18.25;40.45;101050.66;5079826;28;45429;-94
2021/06/01 03:45:03;;;;;;;;;6.67;6.67;;;;;18.43;40.32;101087.75;5079864;28;45331;-93
2021/06/01 03:47:29;;;;;;;;;6.33;6.33;;;;;18.39;40.16;101086.91;5079591;28;48244;-94
2021/06/01 03:49:57;;;;;;;;;6.00;5.67;;;;;18.35;40.18;101088.72;5078152;28;45622;-93
2021/06/01 03:52:23;;;;;;;;;9.67;6.00;;;;;18.34;40.53;101096.72;5077943;28;45326;-90
2021/06/01 03:54:48;;;;;;;;;5.00;5.00;;;;;18.17;40.59;101073.78;5077060;28;45681;-92
2021/06/01 03:57:16;;;;;;;;;5.33;5.33;;;;;18.23;40.57;101080.84;5079465;28;48264;-91
2021/06/01 03:59:49;;;;;;;;;6.33;5.00;;;;;18.17;40.32;101077.34;5081389;28;45375;-90
2021/06/01 04:02:15;;;;;;;;;6.33;5.33;;;;;18.19;40.89;101081.78;5081086;28;45451;-93
2021/06/01 04:04:40;;;;;;;;;8.67;7.67;;;;;18.13;40.39;101074.69;5080980;28;45497;-93
2021/06/01 04:07:11;;;;;;;;;8.00;7.33;;;;;18.07;40.38;101072.97;5082019;28;45608;-93
2021/06/01 04:09:38;;;;;;;;;5.00;5.00;;;;;18.09;40.80;101071.16;5082292;27;45299;-93
2021/06/01 04:12:05;;;;;;;;;6.33;6.33;;;;;18.07;41.03;101075.63;5080650;28;45182;-90
2021/06/01 04:14:40;;;;;;;;;8.00;8.00;;;;;17.96;41.37;101054.41;5081514;28;45425;-90
2021/06/01 04:17:09;;;;;;;;;5.33;5.33;;;;;17.99;41.21;101064.16;5082407;28;47704;-92
2021/06/01 04:19:34;;;;;;;;;9.67;6.67;;;;;17.97;41.43;101060.63;5083195;28;45738;-93
2021/06/01 04:22:02;;;;;;;;;10.00;7.00;;;;;18.08;41.16;101080.06;5084024;28;45284;-89
2021/06/01 04:25:15;;;;;;;;;7.33;5.33;;;;;18.08;41.31;101084.50;5087263;28;45592;-91
2021/06/01 04:30:49;;;;;;;;;10.00;7.33;;;;;17.89;41.12;101058.03;5007183;28;44938;-95
2021/06/01 04:33:22;;;;;;;;;9.00;7.33;;;;;17.86;40.95;101052.72;5005836;28;45467;-95
2021/06/01 04:35:57;;;;;;;;;10.33;7.00;;;;;17.99;41.61;101074.81;5006835;28;45317;-94
2021/06/01 04:38:33;;;;;;;;;7.67;7.00;;;;;17.98;41.52;101073.06;5007151;28;45488;-94
2021/06/01 04:41:06;;;;;;;;;7.00;7.00;;;;;17.91;41.93;101067.78;5008257;28;45501;-94
2021/06/01 04:43:32;;;;;;;;;14.00;9.33;;;;;17.81;41.46;101050.09;4993325;28;44799;-93
2021/06/01 04:45:58;;;;;;;;;8.33;6.00;;;;;17.82;41.63;101049.22;5008628;28;45376;-92
2021/06/01 04:48:24;;;;;;;;;8.33;8.00;;;;;17.82;41.75;101046.56;4991779;28;47318;-94
2021/06/01 04:51:03;;;;;;;;;10.00;8.00;;;;;17.99;41.97;101074.81;4992235;28;45034;-94
2021/06/01 04:53:36;;;;;;;;;11.67;9.00;;;;;17.93;41.95;101065.09;4990954;28;45433;-94
2021/06/01 04:56:07;;;;;;;;;7.00;7.00;;;;;17.82;41.57;101044.78;4992024;28;45418;-92
2021/06/01 04:58:42;;;;;;;;;9.00;8.33;;;;;17.79;41.96;101046.56;4992242;28;46770;-93
2021/06/01 05:01:08;;;;;;;;;8.67;7.00;;;;;17.93;41.76;101068.66;5009347;28;45397;-92
2021/06/01 05:03:54;;;;;;;;;9.67;6.33;;;;;17.94;42.07;101056.22;5016576;28;45296;-92
2021/06/01 05:06:35;;;;;;;;;8.33;6.00;;;;;17.86;42.12;101039.44;5087871;28;45428;-94
2021/06/01 05:09:07;;;;;;;;;10.00;7.67;;;;;17.90;42.19;101049.16;5103475;27;47378;-94
2021/06/01 05:11:38;;;;;;;;;5.00;5.00;;;;;17.96;41.88;101058.88;5084687;28;45484;-95
2021/06/01 05:14:15;;;;;;;;;9.00;6.00;;;;;17.89;41.63;101045.63;5088548;28;45173;-92
2021/06/01 05:16:41;;;;;;;;;5.00;5.00;;;;;17.97;42.10;101060.63;5089053;28;45487;-94
2021/06/01 05:19:07;;;;;;;;;8.33;8.00;;;;;17.94;42.13;101054.44;5086321;28;47211;-95
2021/06/01 05:21:33;;;;;;;;;8.67;6.00;;;;;17.82;42.28;101025.28;5085056;28;45886;-92
2021/06/01 05:23:59;;;;;;;;;9.00;7.67;;;;;17.91;42.16;101041.19;5083206;27;45389;-93
2021/06/01 05:26:24;;;;;;;;;9.00;6.00;;;;;17.88;41.99;101029.66;5080811;28;45378;-94
2021/06/01 05:28:50;;;;;;;;;8.00;8.00;;;;;18.05;41.81;101058.78;5081148;28;47349;-92
2021/06/01 05:31:19;;;;;;;;;5.67;5.33;;;;;17.94;41.97;101037.59;5084080;28;45263;-93
2021/06/01 05:33:53;;;;;;;;;7.33;5.67;;;;;17.90;41.78;101027.88;5088642;28;45338;-91
2021/06/01 05:36:18;;;;;;;;;6.33;6.33;;;;;17.86;42.26;101031.47;5089610;28;44775;-94
2021/06/01 05:38:44;;;;;;;;;7.33;7.33;;;;;17.87;41.83;101023.50;5089839;28;47383;-94
2021/06/01 05:41:09;;;;;;;;;6.00;5.67;;;;;18.03;42.18;101050.81;5102387;27;44618;-92
2021/06/01 05:43:35;;;;;;;;;7.33;7.33;;;;;17.92;42.16;101032.28;5103583;27;45270;-94
2021/06/01 05:46:01;;;;;;;;;7.33;6.00;;;;;17.91;41.94;101025.22;5105771;27;44804;-94
2021/06/01 05:48:26;;;;;;;;;7.33;6.67;;;;;17.93;41.50;101027.88;5107314;27;46869;-91
2021/06/01 05:50:52;;;;;;;;;10.00;7.67;;;;;18.04;42.12;101041.94;5108046;27;45350;-91
2021/06/01 05:53:19;;;;;;;;;7.00;7.00;;;;;18.10;42.28;101054.31;5106566;27;45071;-90
2021/06/01 05:55:45;;;;;;;;;8.00;8.00;;;;;17.98;42.48;101022.50;5091488;28;45395;-86
2021/06/01 05:58:11;;;;;;;;;7.00;7.00;;;;;18.04;42.99;101033.09;5092131;28;45216;-86
2021/06/01 06:00:36;;;;;;;;;8.67;8.33;;;;;18.06;42.90;101034.81;5081678;28;45332;-87
2021/06/01 06:03:03;;;;;;;;;11.00;9.67;;;;;18.18;42.51;101051.63;5080368;28;44700;-86
2021/06/01 06:05:29;;;;;;;;;8.00;7.67;;;;;18.21;42.59;101042.72;5079961;28;45439;-83
2021/06/01 06:07:55;;;;;;;;;9.00;9.00;;;;;18.19;42.87;101039.19;5078710;28;45002;-87
2021/06/01 06:10:20;;;;;;;;;10.33;9.00;;;;;18.24;42.80;101048.00;5062307;28;45355;-85
2021/06/01 06:12:46;;;;;;;;;12.00;9.00;;;;;18.18;42.41;101043.63;5063362;28;45338;-87
2021/06/01 06:15:15;;;;;;;;;8.00;6.33;;;;;18.28;42.43;101057.72;5071984;28;45284;-84
2021/06/01 06:17:52;;;;;;;;;11.67;7.67;;;;;18.27;42.80;101050.66;5073747;28;45309;-88
2021/06/01 06:20:18;;;;;;;;;10.00;8.00;;;;;18.25;42.86;101047.13;5076190;28;45336;-90
2021/06/01 06:22:43;;;;;;;;;8.33;8.33;;;;;18.32;43.02;101054.13;5071423;28;44682;-91
2021/06/01 06:25:11;;;;;;;;;10.00;9.67;;;;;18.16;42.80;101018.78;5059961;28;45149;-93
2021/06/01 06:27:37;;;;;;;;;6.33;6.33;;;;;18.32;43.37;101042.63;5058406;28;46391;-87
2021/06/01 06:30:10;;;;;;;;;9.67;7.67;;;;;18.36;42.93;101047.88;5059136;28;45402;-89
2021/06/01 06:32:36;;;;;;;;;9.67;9.00;;;;;18.37;43.06;101048.78;5059041;28;45408;-87
2021/06/01 06:35:03;;;;;;;;;10.00;7.67;;;;;18.38;43.01;101040.75;5059558;28;45342;-91
2021/06/01 06:37:28;;;;;;;;;7.00;7.00;;;;;18.36;43.34;101029.25;5059751;28;46512;-87
2021/06/01 06:39:54;;;;;;;;;7.67;6.00;;;;;18.32;42.89;101024.84;5058717;28;45469;-89
2021/06/01 06:42:20;;;;;;;;;9.00;7.33;;;;;18.42;43.34;101041.63;5040551;28;45339;-89
2021/06/01 06:44:50;;;;;;;;;8.00;7.00;;;;;18.41;43.34;101031.88;5059045;28;45359;-84
2021/06/01 06:47:24;;;;;;;;;11.33;9.00;;;;;18.43;43.61;101034.50;5057956;28;45411;-84
2021/06/01 06:49:50;;;;;;;;;8.33;7.00;;;;;18.44;43.42;101034.53;5057814;28;45241;-86
2021/06/01 06:52:15;;;;;;;;;9.67;7.67;;;;;18.37;43.47;101015.06;5057848;28;45418;-86
2021/06/01 06:54:41;;;;;;;;;10.33;7.00;;;;;18.46;43.98;101031.84;5058678;28;45433;-90
2021/06/01 06:57:07;;;;;;;;;6.67;6.00;;;;;18.50;45.11;101036.22;5057523;28;45537;-86
2021/06/01 06:59:33;;;;;;;;;10.00;7.67;;;;;18.40;45.40;101017.69;5042399;28;45530;-89
2021/06/01 07:02:01;;;;;;;;;9.33;6.67;;;;;18.43;45.15;101023.88;5043047;28;45360;-91
2021/06/01 07:04:26;;;;;;;;;9.33;9.00;;;;;18.50;45.90;101025.56;5042028;28;45253;-90
2021/06/01 07:06:56;;;;;;;;;7.67;6.67;;;;;18.43;45.60;101018.53;5058395;28;45447;-89
2021/06/01 07:09:22;;;;;;;;;8.00;7.33;;;;;18.37;45.24;100999.09;5039983;28;45962;-90
2021/06/01 07:11:47;;;;;;;;;10.67;8.33;;;;;18.50;45.23;101017.59;5058357;28;45359;-90
2021/06/01 07:14:16;;;;;;;;;9.33;9.00;;;;;18.59;45.87;101028.13;5040381;28;45504;-88
2021/06/01 07:16:41;;;;;;;;;7.00;7.00;;;;;18.45;46.01;100998.09;5039873;28;47528;-88
2021/06/01 07:19:07;;;;;;;;;10.00;8.33;;;;;18.51;46.26;101003.38;5040276;28;45291;-88
2021/06/01 07:21:32;;;;;;;;;8.67;7.00;;;;;18.44;45.96;100985.72;5040998;28;45463;-90
2021/06/01 07:23:58;;;;;;;;;9.00;8.00;;;;;18.57;46.33;101002.44;5063059;28;45388;-89
2021/06/01 07:26:24;;;;;;;;;9.33;6.67;;;;;18.50;45.67;100985.66;5061905;28;45214;-89
2021/06/01 07:28:50;;;;;;;;;9.33;9.33;;;;;18.56;46.51;100995.34;5043008;28;45250;-88
2021/06/01 07:31:17;;;;;;;;;12.00;10.67;;;;;18.68;46.21;101013.81;5059895;28;45357;-89
2021/06/01 07:33:43;;;;;;;;;9.00;7.00;;;;;18.67;46.99;101003.19;5058926;28;45414;-90
2021/06/01 07:36:09;;;;;;;;;9.00;8.00;;;;;18.73;46.72;101009.34;5040589;28;47069;-91
2021/06/01 07:38:35;;;;;;;;;9.33;8.33;;;;;18.66;47.01;100993.44;5058053;28;45621;-90
2021/06/01 07:41:05;;;;;;;;;8.33;7.00;;;;;18.67;47.30;100992.53;5065293;28;45408;-89
2021/06/01 07:43:31;;;;;;;;;9.00;9.00;;;;;18.62;47.31;100980.16;5069512;28;45438;-90
2021/06/01 07:45:57;;;;;;;;;12.33;9.00;;;;;18.63;47.31;100975.75;5059036;28;47426;-89
2021/06/01 07:48:23;;;;;;;;;10.00;10.00;;;;;18.80;47.27;100999.50;5061350;28;45241;-89
2021/06/01 07:50:50;;;;;;;;;8.00;7.00;;;;;18.84;47.90;101000.31;5077359;28;45469;-88
2021/06/01 07:53:16;;;;;;;;;11.00;9.00;;;;;18.84;47.43;100995.88;5054212;28;45328;-89
2021/06/01 07:55:41;;;;;;;;;9.00;8.00;;;;;18.83;47.50;100987.91;5046057;28;47379;-89
2021/06/01 07:58:07;;;;;;;;;9.67;7.67;;;;;18.89;47.52;100989.63;5042168;28;45803;-90
2021/06/01 08:00:32;;;;;;;;;11.33;9.67;;;;;18.91;47.36;100979.81;5059129;28;45257;-90
2021/06/01 08:02:58;;;;;;;;;9.67;8.00;;;;;19.07;47.16;100992.03;5039944;28;45344;-90
2021/06/01 08:05:24;;;;;;;;;8.33;8.00;;;;;19.06;47.19;100970.72;5039420;28;48021;-89
2021/06/01 08:07:50;;;;;;;;;9.33;8.00;;;;;19.19;46.84;100974.13;5040460;28;45953;-91
2021/06/01 08:10:16;;;;;;;;;11.67;8.33;;;;;19.35;45.56;100979.22;5057593;28;45499;-89
2021/06/01 08:12:42;;;;;;;;;12.00;12.00;;;;;19.40;46.21;100964.03;5039637;28;45367;-89
2021/06/01 08:15:09;;;;;;;;;12.00;9.00;;;;;19.52;46.31;100946.97;5038929;28;48533;-89
2021/06/01 08:17:34;;;;;;;;;9.33;9.33;;;;;19.82;45.50;100962.47;5039600;28;45368;-89
2021/06/01 08:20:11;;;;;;;;;10.67;7.67;;;;;20.02;45.34;100948.75;5059600;28;45406;-89
2021/06/01 08:22:38;;;;;;;;;12.67;8.67;;;;;20.38;45.70;100949.88;5045808;28;45608;-89
2021/06/01 08:25:04;;;;;;;;;8.33;8.33;;;;;20.64;44.73;100943.13;5043284;28;47647;-89
2021/06/01 08:27:30;;;;;;;;;13.00;8.67;;;;;20.96;42.96;100946.91;5045162;28;45652;-89
2021/06/01 08:29:56;;;;;;;;;10.33;9.33;;;;;21.38;43.80;100943.25;5059462;28;45396;-89
2021/06/01 08:32:23;;;;;;;;;13.00;9.33;;;;;21.68;43.64;100938.97;5040154;28;45595;-89
2021/06/01 08:34:48;;;;;;;;;9.00;8.00;;;;;22.06;43.64;100950.47;5056763;28;46292;-90
2021/06/01 08:37:14;;;;;;;;;9.00;8.00;;;;;22.49;42.78;100955.53;5057304;28;45493;-90
2021/06/01 08:39:39;;;;;;;;;14.00;9.00;;;;;23.03;41.98;100928.06;5039726;28;45432;-89
2021/06/01 08:42:05;;;;;;;;;13.00;11.33;;;;;23.76;40.94;100934.63;5042265;28;45641;-90
2021/06/01 08:44:30;;;;;;;;;11.00;10.00;;;;;24.13;40.25;100927.09;5047268;28;45929;-90
2021/06/01 08:46:56;;;;;;;;;9.33;7.33;;;;;24.99;39.48;100940.00;5065830;28;45323;-89
2021/06/01 08:49:22;;;;;;;;;8.33;7.67;;;;;25.95;38.39;100942.34;5063923;28;45315;-89
2021/06/01 08:51:49;;;;;;;;;10.33;8.00;;;;;26.36;37.43;100940.53;5061250;28;45321;-88
2021/06/01 08:54:15;;;;;;;;;10.67;7.00;;;;;26.58;36.93;100950.34;5061231;28;46247;-91
2021/06/01 08:56:41;;;;;;;;;10.00;8.67;;;;;26.77;35.90;100946.78;5061073;28;45319;-90
2021/06/01 08:59:08;;;;;;;;;8.33;8.33;;;;;26.81;36.11;100924.09;5060323;28;45377;-90
2021/06/01 09:01:39;;;;;;;;;12.67;9.00;;;;;27.11;35.51;100938.91;5060683;28;45461;-90
2021/06/01 09:04:10;;;;;;;;;7.00;7.00;;;;;27.35;34.55;100944.88;5063099;28;45438;-91
2021/06/01 09:14:51;;;;;;;;;8.67;8.67;;;;;28.95;33.18;100930.22;5061510;28;45465;-92
2021/06/01 09:22:52;;;;;;;;;8.33;8.33;;;;;32.46;29.59;100924.19;5060837;28;45533;-92
2021/06/01 09:25:34;;;;;;;;;8.00;7.67;;;;;32.53;28.79;100916.44;5041551;28;46754;-93
2021/06/01 09:28:01;;;;;;;;;10.00;8.00;;;;;32.53;29.34;100928.16;5042715;28;45439;-90
2021/06/01 09:30:46;;;;;;;;;8.67;8.00;;;;;32.82;28.33;100937.94;5060130;28;45256;-91
2021/06/01 09:33:20;;;;;;;;;10.67;8.00;;;;;33.54;28.61;100938.03;5042321;28;45383;-92
2021/06/01 09:35:54;;;;;;;;;9.67;8.67;;;;;34.75;26.74;100926.69;5059546;28;45506;-91
2021/06/01 09:38:35;;;;;;;;;9.00;6.67;;;;;36.01;25.67;100910.72;5041130;28;45308;-93
2021/06/01 09:41:12;;;;;;;;;6.67;6.67;;;;;37.74;23.47;100907.75;5059597;28;45337;-89
2021/06/01 09:44:00;;;;;;;;;9.33;8.67;;;;;39.34;22.84;100930.59;5062668;28;45320;-90
2021/06/01 09:46:26;;;;;;;;;9.00;9.00;;;;;39.92;22.03;100929.28;5044070;28;47432;-90
2021/06/01 09:48:54;;;;;;;;;12.00;8.67;;;;;39.43;22.06;100917.75;5041324;28;45348;-90
2021/06/01 09:51:32;;;;;;;;;9.00;9.00;;;;;38.74;22.18;100905.44;5059309;28;45410;-91
2021/06/01 09:54:34;;;;;;;;;9.33;8.00;;;;;38.48;22.38;100914.41;5041500;28;45571;-91
2021/06/01 09:57:01;;;;;;;;;10.00;9.00;;;;;39.17;21.82;100929.56;5059179;28;45573;-89
2021/06/01 09:59:27;;;;;;;;;9.67;5.33;;;;;39.64;20.29;100911.03;5059618;28;45328;-89
2021/06/01 10:01:53;;;;;;;;;5.67;5.67;;;;;40.47;19.97;100920.75;5041804;28;45387;-90
2021/06/01 10:04:26;;;;;;;;;9.00;6.67;;;;;41.84;19.11;100929.63;5059586;28;45431;-92
2021/06/01 10:06:52;;;;;;;;;8.00;8.00;;;;;42.73;18.57;100926.84;5041022;28;48237;-88
2021/06/01 10:09:18;;;;;;;;;9.00;8.00;;;;;43.05;16.44;100929.56;5058773;28;45332;-89
2021/06/01 10:11:55;;;;;;;;;8.67;7.67;;;;;42.34;18.00;100926.72;5058911;28;45348;-89
2021/06/01 10:14:22;;;;;;;;;10.00;9.00;;;;;41.65;18.87;100920.72;5059007;28;45521;-88
2021/06/01 10:16:47;;;;;;;;;8.33;8.00;;;;;40.97;18.89;100912.63;5057980;28;45375;-88
2021/06/01 10:19:15;;;;;;;;;7.33;7.00;;;;;40.47;19.21;100905.09;5058595;28;45427;-89
2021/06/01 10:21:42;;;;;;;;;8.00;8.00;;;;;40.16;18.95;100892.81;5059415;28;45272;-88
2021/06/01 10:24:10;;;;;;;;;8.67;8.00;;;;;40.43;18.59;100892.69;5043667;28;45508;-89
2021/06/01 10:26:35;;;;;;;;;7.67;6.67;;;;;41.38;18.29;100910.91;5063101;28;45405;-88
2021/06/01 10:29:01;;;;;;;;;7.33;7.33;;;;;42.91;16.96;100898.09;5065264;28;45421;-89
2021/06/01 10:31:26;;;;;;;;;7.67;5.67;;;;;44.54;16.29;100886.63;5050177;28;45322;-88
2021/06/01 10:33:59;;;;;;;;;8.00;8.00;;;;;45.83;15.29;100895.16;5041463;28;45312;-89
2021/06/01 10:50:41;;;;;;;;;6.00;6.00;;;;;42.17;15.83;100869.84;4997740;28;45482;-89
2021/06/01 10:53:18;;;;;;;;;6.00;6.00;;;;;42.32;16.76;100881.00;4999148;28;45466;-90
2021/06/01 10:55:52;;;;;;;;;6.67;6.67;;;;;43.23;16.24;100873.09;4997338;28;45417;-87
2021/06/01 10:58:23;;;;;;;;;7.33;6.67;;;;;44.80;15.19;100876.88;4980333;28;47225;-89
2021/06/01 11:03:17;;;;;;;;;7.33;7.00;;;;;47.83;13.36;100890.28;4996058;28;45416;-89
2021/06/01 11:05:54;;;;;;;;;8.67;8.33;;;;;47.47;13.22;100884.16;4995651;28;45346;-89
2021/06/01 11:08:37;;;;;;;;;9.67;9.00;;;;;45.22;13.90;100887.28;4995962;28;45526;-89
2021/06/01 11:11:23;;;;;;;;;6.33;6.33;;;;;43.08;14.39;100875.81;4995916;28;45289;-89
2021/06/01 11:13:52;;;;;;;;;8.00;8.00;;;;;41.53;15.20;100861.44;4969527;28;45481;-89
2021/06/01 11:16:18;;;;;;;;;7.67;7.00;;;;;40.45;16.32;100862.22;5025640;28;45401;-89
2021/06/01 11:18:50;;;;;;;;;7.67;6.67;;;;;39.42;17.00;100839.06;5057765;28;46416;-89
2021/06/01 11:21:35;;;;;;;;;7.33;7.00;;;;;38.72;17.27;100852.56;5057794;28;45376;-90
2021/06/01 11:33:04;;;;;;;;;8.33;8.33;;;;;36.54;18.90;100847.69;4995550;28;45472;-89
2021/06/01 11:35:30;;;;;;;;;8.00;7.33;;;;;36.17;19.52;100838.22;4995810;28;45549;-90
2021/06/01 11:38:18;;;;;;;;;9.33;8.67;;;;;35.86;19.46;100829.06;4996014;28;45518;-89
2021/06/01 11:41:04;;;;;;;;;7.00;6.33;;;;;35.63;19.09;100822.88;4996041;28;45496;-90
2021/06/01 11:43:30;;;;;;;;;8.00;6.67;;;;;35.30;19.59;100802.00;4996569;28;45453;-89
2021/06/01 11:46:15;;;;;;;;;6.00;6.00;;;;;35.13;19.54;100811.66;4996050;28;45556;-89
2021/06/01 11:51:44;;;;;;;;;7.00;6.33;;;;;34.85;20.27;100820.38;4995718;28;45480;-88
2021/06/01 11:54:15;;;;;;;;;7.67;5.00;;;;;34.63;20.16;100796.72;4995807;28;45345;-90
2021/06/01 12:02:15;;;;;;;;;9.00;8.00;;;;;34.25;20.24;100798.91;4996003;28;45482;-91
2021/06/01 12:13:15;;;;;;;;;7.33;7.00;;;;;33.70;20.17;100798.69;5077586;28;45446;-92
2021/06/01 12:18:37;;;;;;;;;8.00;8.00;;;;;33.30;20.21;100797.31;5079981;28;45268;-92
2021/06/01 12:21:05;;;;;;;;;9.00;7.00;;;;;33.06;20.74;100790.06;5063389;28;45529;-92
2021/06/01 12:23:36;;;;;;;;;9.00;6.67;;;;;32.99;20.51;100799.69;5081409;28;45355;-91
2021/06/01 12:26:26;;;;;;;;;8.00;7.33;;;;;32.78;20.15;100787.63;5063348;28;45957;-91
2021/06/01 12:32:29;;;;;;;;;8.00;8.00;;;;;32.53;21.74;100802.19;5082143;28;45291;-92
2021/06/01 12:43:38;;;;;;;;;7.00;6.67;;;;;32.08;22.78;100784.63;5072632;28;45490;-91
2021/06/01 12:46:17;;;;;;;;;10.00;8.00;;;;;31.84;22.20;100767.25;5068635;28;45323;-91
2021/06/01 13:20:44;;;;;;;;;8.00;5.67;;;;;30.17;24.64;100739.59;5003248;28;45766;-89
2021/06/01 13:32:30;;;;;;;;;7.00;7.00;;;;;29.74;25.42;100747.81;5003501;28;45634;-91
2021/06/01 13:38:16;;;;;;;;;6.33;6.33;;;;;29.41;24.84;100737.16;5002873;28;44936;-91